Time;durP1;ratioP1;P1;durP2;ratioP2;P2;SDS_P1;SDS_P2;PMS_P1;PMS_P2;Temp;Humidity;BMP_temperature;BMP_pressure;BME280_temperature;BME280_humidity;BME280_pressure;Samples;Min_cycle;Max_cycle;Signal;HPM_P1;HPM_P2
2022/12/25 00:01:41;;;;;;;26.00;18.43;;;;;;;4.15;100.00;96475.09;5083529;28;20493;-77
2022/12/25 00:04:08;;;;;;;30.23;22.07;;;;;;;4.10;100.00;96443.75;5069620;28;20469;-77
2022/12/25 00:06:35;;;;;;;22.93;19.93;;;;;;;4.27;100.00;96466.81;5063554;28;20472;-77
2022/12/25 00:09:02;;;;;;;34.07;20.53;;;;;;;4.19;100.00;96428.22;5059485;28;20539;-77
2022/12/25 00:11:28;;;;;;;26.70;20.73;;;;;;;4.39;100.00;96459.31;5056716;28;20780;-77
2022/12/25 00:13:55;;;;;;;40.73;26.17;;;;;;;4.29;100.00;96441.94;5059514;28;20436;-77
2022/12/25 00:16:23;;;;;;;35.53;24.90;;;;;;;4.27;100.00;96448.50;5071913;28;20508;-77
2022/12/25 00:18:51;;;;;;;37.53;24.03;;;;;;;4.29;100.00;96434.09;5070452;28;20964;-77
2022/12/25 00:21:19;;;;;;;36.37;23.13;;;;;;;4.41;100.00;96449.38;5063130;28;20444;-77
2022/12/25 00:23:47;;;;;;;27.10;21.23;;;;;;;4.30;100.00;96434.84;5068573;28;20857;-77
2022/12/25 00:26:16;;;;;;;38.57;23.70;;;;;;;4.13;100.00;96424.84;5065159;28;20498;-77
2022/12/25 00:28:43;;;;;;;34.13;24.30;;;;;;;3.91;100.00;96409.72;5056801;28;20479;-77
2022/12/25 00:31:15;;;;;;;33.43;21.93;;;;;;;4.19;100.00;96438.66;5072529;28;20427;-77
2022/12/25 00:33:44;;;;;;;35.10;23.30;;;;;;;4.13;100.00;96428.25;5061285;28;20480;-77
2022/12/25 00:36:13;;;;;;;32.77;21.70;;;;;;;4.21;100.00;96449.63;5059066;28;20430;-77
2022/12/25 00:38:41;;;;;;;33.67;22.73;;;;;;;4.12;100.00;96450.25;5056331;28;20450;-77
2022/12/25 00:41:11;;;;;;;25.93;20.03;;;;;;;3.99;100.00;96442.31;5055878;28;20453;-77
2022/12/25 00:43:37;;;;;;;28.77;21.30;;;;;;;4.05;100.00;96457.69;5059148;28;21050;-77
2022/12/25 00:46:05;;;;;;;29.53;22.03;;;;;;;3.98;100.00;96438.91;5061111;28;20725;-77
2022/12/25 00:48:33;;;;;;;32.10;19.77;;;;;;;4.06;100.00;96435.69;5072209;28;20519;-77
2022/12/25 00:51:03;;;;;;;26.93;19.20;;;;;;;4.12;100.00;96436.38;5075988;28;20473;-78
2022/12/25 00:53:30;;;;;;;25.63;17.57;;;;;;;4.10;100.00;96447.13;5045596;28;20449;-78
2022/12/25 00:56:00;;;;;;;26.40;18.90;;;;;;;3.89;100.00;96422.31;5065816;28;20429;-76
2022/12/25 00:58:29;;;;;;;28.20;17.20;;;;;;;4.09;100.00;96429.09;5063585;28;20873;-77
2022/12/25 01:00:56;;;;;;;22.17;17.53;;;;;;;3.90;100.00;96410.00;5070416;28;20441;-76
2022/12/25 01:03:30;;;;;;;22.80;15.93;;;;;;;4.11;100.00;96440.84;5062210;28;20453;-76
2022/12/25 01:06:07;;;;;;;27.67;15.03;;;;;;;4.13;100.00;96462.25;5079948;28;20461;-80
2022/12/25 01:08:37;;;;;;;17.10;13.77;;;;;;;3.69;100.00;96399.78;5076675;28;20795;-78
2022/12/25 01:11:08;;;;;;;21.33;16.17;;;;;;;3.69;100.00;96370.25;5058791;28;20492;-76
2022/12/25 01:13:36;;;;;;;18.23;13.97;;;;;;;2.25;100.00;96153.56;5071076;28;20482;-77
2022/12/25 01:16:09;;;;;;;14.20;11.17;;;;;;;3.25;100.00;96316.41;5064702;28;20429;-78
2022/12/25 01:18:37;;;;;;;13.60;9.93;;;;;;;3.61;100.00;96363.06;5064573;28;20450;-78
2022/12/25 01:21:06;;;;;;;21.43;12.00;;;;;;;4.37;100.00;96482.38;5055547;28;20443;-77
2022/12/25 01:23:33;;;;;;;18.90;11.80;;;;;;;4.18;100.00;96481.59;5077640;28;20866;-77
2022/12/25 01:26:04;;;;;;;18.10;11.80;;;;;;;3.87;100.00;96453.16;5082835;28;20456;-78
2022/12/25 01:28:31;;;;;;;13.20;10.90;;;;;;;3.94;100.00;96458.06;5066027;28;20432;-78
2022/12/25 01:30:57;;;;;;;22.30;12.13;;;;;;;3.96;100.00;96466.41;5081322;28;20428;-77
2022/12/25 01:33:24;;;;;;;13.40;9.47;;;;;;;4.27;100.00;96472.81;5065928;28;20453;-77
2022/12/25 01:35:51;;;;;;;20.27;10.57;;;;;;;3.98;100.00;96444.16;5068402;28;20429;-78
2022/12/25 01:38:18;;;;;;;13.27;9.53;;;;;;;3.92;100.00;96444.50;5078620;28;20479;-78
2022/12/25 01:40:45;;;;;;;13.37;9.23;;;;;;;4.21;100.00;96486.25;5070982;28;20473;-76
2022/12/25 01:43:27;;;;;;;13.87;8.63;;;;;;;4.15;100.00;96467.25;5074894;28;20453;-77
2022/12/25 01:45:54;;;;;;;8.03;7.00;;;;;;;4.04;100.00;96442.25;5073146;28;20452;-76
2022/12/25 01:48:26;;;;;;;10.97;7.87;;;;;;;4.19;100.00;96454.38;5078757;28;20451;-78
2022/12/25 01:50:57;;;;;;;13.00;7.37;;;;;;;4.36;100.00;96473.75;5082350;28;20428;-77
2022/12/25 01:53:25;;;;;;;18.33;7.63;;;;;;;4.25;100.00;96455.84;5071400;28;20890;-77
2022/12/25 01:56:05;;;;;;;11.70;6.63;;;;;;;4.32;100.00;96448.44;5074112;28;20433;-76
2022/12/25 01:58:32;;;;;;;6.27;4.90;;;;;;;4.32;100.00;96437.97;5060279;28;20507;-76
2022/12/25 02:00:59;;;;;;;10.83;5.13;;;;;;;4.48;100.00;96459.47;5093954;28;20425;-76
2022/12/25 02:03:26;;;;;;;5.93;4.73;;;;;;;4.36;100.00;96455.44;5080858;28;20456;-76
2022/12/25 02:06:13;;;;;;;10.07;5.70;;;;;;;4.31;100.00;96458.13;5060823;28;20453;-76
2022/12/25 02:08:40;;;;;;;8.73;4.60;;;;;;;4.36;100.00;96459.88;4994317;28;21025;-76
2022/12/25 02:11:55;;;;;;;10.93;6.37;;;;;;;4.29;100.00;96454.25;4983229;28;20948;-78
2022/12/25 02:13:55;;;;;;;9.50;5.70;;;;;;;4.01;100.00;96416.69;5005621;28;20514;-77
2022/12/25 02:16:29;;;;;;;8.87;5.90;;;;;;;4.05;100.00;96449.03;5017999;28;20436;-78
2022/12/25 02:19:07;;;;;;;8.10;4.60;;;;;;;4.04;100.00;96408.25;5015199;28;20530;-77
2022/12/25 02:22:30;;;;;;;10.23;5.97;;;;;;;4.33;100.00;96434.28;5000579;28;20505;-76
2022/12/25 02:25:09;;;;;;;7.87;5.60;;;;;;;4.44;100.00;96443.56;4958860;28;20547;-77
2022/12/25 02:27:36;;;;;;;10.70;6.20;;;;;;;4.32;100.00;96437.97;4983774;28;20518;-76
2022/12/25 02:30:05;;;;;;;17.37;6.37;;;;;;;4.24;100.00;96446.44;5007968;28;20482;-76
2022/12/25 02:32:43;;;;;;;9.00;6.20;;;;;;;4.22;100.00;96459.81;4983246;28;20565;-76
2022/12/25 02:35:16;;;;;;;8.63;6.07;;;;;;;4.18;100.00;96461.44;4986640;28;20466;-76
2022/12/25 02:38:04;;;;;;;11.00;6.53;;;;;;;4.08;100.00;96433.56;4986537;28;20534;-77
2022/12/25 02:40:40;;;;;;;11.00;6.10;;;;;;;4.00;100.00;96410.63;5006575;28;20498;-77
2022/12/25 03:06:42;;;;;;;11.83;5.90;;;;;;;4.18;100.00;96447.59;5070745;28;20456;-77
2022/12/25 03:12:15;;;;;;;8.43;5.37;;;;;;;4.03;100.00;96431.03;5056294;28;20429;-76
2022/12/25 03:17:31;;;;;;;4.80;4.30;;;;;;;4.29;100.00;96441.16;5069505;28;20436;-76
2022/12/25 03:28:15;;;;;;;18.10;5.80;;;;;;;4.06;100.00;96419.22;5069972;28;20508;-76
2022/12/25 04:38:32;;;;;;;16.00;5.20;;;;;;;3.43;100.00;96378.38;5072008;28;20539;-77
2022/12/25 04:41:00;;;;;;;6.57;5.70;;;;;;;3.78;100.00;96449.63;5059521;28;20428;-77
2022/12/25 04:43:27;;;;;;;7.73;5.90;;;;;;;3.42;100.00;96417.88;5072190;28;20836;-77
2022/12/25 04:45:55;;;;;;;4.60;4.13;;;;;;;3.62;100.00;96443.81;5073529;28;20495;-76
2022/12/25 04:48:23;;;;;;;7.47;6.17;;;;;;;3.43;100.00;96428.03;5055822;28;20439;-77
2022/12/25 04:50:50;;;;;;;12.07;7.20;;;;;;;3.63;100.00;96453.19;5072174;28;20432;-76
2022/12/25 04:53:17;;;;;;;12.93;6.90;;;;;;;3.60;100.00;96455.56;5072060;28;20467;-77
2022/12/25 04:55:44;;;;;;;8.47;6.80;;;;;;;3.64;100.00;96452.13;5075447;28;20421;-77
2022/12/25 04:58:11;;;;;;;12.00;6.73;;;;;;;3.56;100.00;96421.38;5055632;28;20994;-76
2022/12/25 05:00:37;;;;;;;11.33;7.00;;;;;;;3.72;100.00;96427.19;5087174;28;20476;-77
2022/12/25 05:03:04;;;;;;;11.80;6.90;;;;;;;3.72;100.00;96427.19;5055383;28;20532;-77
2022/12/25 05:05:31;;;;;;;21.60;8.03;;;;;;;3.82;100.00;96445.41;5071933;28;20472;-76
2022/12/25 05:07:58;;;;;;;21.13;9.97;;;;;;;3.49;100.00;96373.91;5073196;28;20862;-76
2022/12/25 05:10:24;;;;;;;46.70;12.97;;;;;;;3.69;100.00;96404.25;5073587;28;20428;-77
2022/12/25 05:12:51;;;;;;;24.83;8.97;;;;;;;3.89;100.00;96424.16;5072673;28;20992;-77
2022/12/25 05:15:18;;;;;;;20.77;10.40;;;;;;;4.10;100.00;96452.38;5072857;28;20476;-76
2022/12/25 05:17:44;;;;;;;24.57;10.50;;;;;;;4.07;100.00;96452.94;5073196;28;20547;-77
2022/12/25 05:20:11;;;;;;;23.20;10.10;;;;;;;3.89;100.00;96435.38;5056518;28;20562;-76
2022/12/25 05:22:38;;;;;;;25.23;11.43;;;;;;;3.94;100.00;96445.78;5072806;28;20490;-76
2022/12/25 05:25:05;;;;;;;37.20;14.07;;;;;;;3.95;100.00;96434.25;5054980;28;20527;-76
2022/12/25 05:27:31;;;;;;;26.43;12.30;;;;;;;4.23;100.00;96452.75;5071382;28;20436;-76
2022/12/25 05:29:58;;;;;;;16.97;9.83;;;;;;;4.09;100.00;96436.94;5057905;28;20444;-76
2022/12/25 05:32:24;;;;;;;35.43;13.03;;;;;;;4.37;100.00;96467.47;5071155;28;20551;-76
2022/12/25 05:34:51;;;;;;;19.00;11.30;;;;;;;4.08;100.00;96443.25;5072900;28;20428;-77
2022/12/25 05:37:18;;;;;;;23.37;13.20;;;;;;;4.09;100.00;96445.59;5080248;28;20812;-77
2022/12/25 05:39:44;;;;;;;21.17;12.60;;;;;;;4.23;100.00;96450.91;5071214;28;20428;-76
2022/12/25 05:42:11;;;;;;;23.10;12.80;;;;;;;3.76;100.00;96363.63;5070927;28;20471;-76
2022/12/25 05:44:37;;;;;;;19.00;12.30;;;;;;;4.29;100.00;96438.53;5057661;28;20427;-76
2022/12/25 05:47:04;;;;;;;16.13;10.70;;;;;;;4.30;100.00;96427.78;5062618;28;20548;-76
2022/12/25 05:49:31;;;;;;;25.50;12.27;;;;;;;4.55;100.00;96452.06;5064326;28;20433;-76
2022/12/25 05:51:58;;;;;;;15.87;12.67;;;;;;;4.46;100.00;96449.28;5062666;28;20439;-76
2022/12/25 05:54:24;;;;;;;14.43;11.37;;;;;;;4.38;100.00;96442.06;5054095;28;20452;-76
2022/12/25 05:56:51;;;;;;;22.43;13.23;;;;;;;4.08;100.00;96412.63;5070859;28;20463;-76
2022/12/25 05:59:17;;;;;;;19.50;13.40;;;;;;;4.02;100.00;96413.78;5042438;28;20945;-76
2022/12/25 06:01:45;;;;;;;18.53;13.40;;;;;;;4.08;100.00;96409.25;5070648;28;20518;-76
2022/12/25 06:04:12;;;;;;;19.83;15.00;;;;;;;4.18;100.00;96422.19;5056935;28;20983;-76
2022/12/25 06:06:39;;;;;;;17.73;12.50;;;;;;;4.28;100.00;96416.06;5071761;28;20854;-76
2022/12/25 06:09:06;;;;;;;28.90;14.67;;;;;;;4.32;100.00;96424.88;5071859;28;20432;-76
2022/12/25 06:11:32;;;;;;;19.37;13.60;;;;;;;4.37;100.00;96388.94;5054423;28;20438;-76
2022/12/25 06:14:00;;;;;;;16.13;12.10;;;;;;;4.63;100.00;96418.13;5041158;28;21041;-76
2022/12/25 06:16:26;;;;;;;18.93;13.00;;;;;;;4.45;100.00;96385.69;5071033;28;20501;-76
2022/12/25 06:19:01;;;;;;;15.30;11.77;;;;;;;4.47;100.00;96418.66;5071024;28;20432;-76
2022/12/25 06:21:30;;;;;;;19.50;11.50;;;;;;;4.25;100.00;96403.50;5070608;28;20535;-76
2022/12/25 06:23:58;;;;;;;14.57;10.90;;;;;;;4.66;100.00;96448.97;5058235;28;20959;-76
2022/12/25 06:26:25;;;;;;;13.50;11.10;;;;;;;4.65;100.00;96433.56;5070109;28;20491;-76
2022/12/25 06:28:52;;;;;;;15.60;11.87;;;;;;;4.49;100.00;96430.38;5070178;28;20471;-76
2022/12/25 06:31:22;;;;;;;15.43;12.27;;;;;;;4.60;100.00;96413.47;5070409;28;20478;-76
2022/12/25 06:33:49;;;;;;;18.70;12.43;;;;;;;4.73;100.00;96448.63;5069950;28;20506;-76
2022/12/25 06:36:21;;;;;;;14.30;9.93;;;;;;;4.69;100.00;96460.75;5071435;28;20951;-76
2022/12/25 06:38:48;;;;;;;20.53;10.10;;;;;;;4.66;100.00;96456.84;5059185;28;20428;-76
2022/12/25 06:41:26;;;;;;;14.30;12.80;;;;;;;4.60;100.00;96423.94;5071304;28;20519;-76
2022/12/25 06:43:56;;;;;;;14.33;10.53;;;;;;;4.51;100.00;96428.25;5054182;28;20485;-76
2022/12/25 06:46:25;;;;;;;15.07;10.70;;;;;;;4.56;100.00;96470.09;5066664;28;20460;-76
2022/12/25 06:48:52;;;;;;;23.40;12.17;;;;;;;4.32;100.00;96461.53;5069647;28;20936;-76
2022/12/25 06:51:22;;;;;;;15.27;12.00;;;;;;;4.03;100.00;96423.16;5056293;28;20462;-76
2022/12/25 06:53:50;;;;;;;13.60;11.33;;;;;;;3.98;100.00;96420.59;5058092;28;20965;-76
2022/12/25 06:56:19;;;;;;;17.40;11.63;;;;;;;4.05;100.00;96417.66;5068234;28;20501;-76
2022/12/25 06:58:54;;;;;;;13.50;11.37;;;;;;;4.29;100.00;96438.53;5070107;28;21049;-76
2022/12/25 07:01:25;;;;;;;16.70;11.37;;;;;;;4.40;100.00;96460.88;5057119;28;20442;-76
2022/12/25 07:03:55;;;;;;;16.00;11.63;;;;;;;4.43;100.00;96460.31;5061536;28;20504;-76
2022/12/25 07:06:22;;;;;;;12.40;10.07;;;;;;;4.59;100.00;96468.75;5069726;28;20465;-76
2022/12/25 07:08:49;;;;;;;12.57;10.10;;;;;;;4.34;100.00;96446.31;5071412;28;20444;-75
2022/12/25 07:11:16;;;;;;;16.60;11.23;;;;;;;4.31;100.00;96457.34;5072372;28;20432;-77
2022/12/25 07:13:43;;;;;;;15.97;11.53;;;;;;;4.50;100.00;96450.25;5071929;28;20486;-76
2022/12/25 07:16:11;;;;;;;13.87;10.33;;;;;;;4.57;100.00;96466.41;5072753;28;20458;-76
2022/12/25 07:18:38;;;;;;;19.77;12.90;;;;;;;4.61;100.00;96477.88;5056599;28;20936;-77
2022/12/25 07:21:11;;;;;;;14.90;11.23;;;;;;;4.64;100.00;96474.66;5073214;28;20466;-77
2022/12/25 07:23:38;;;;;;;14.83;11.20;;;;;;;4.61;100.00;96475.25;5056215;28;20464;-77
2022/12/25 07:26:05;;;;;;;12.93;11.10;;;;;;;4.55;100.00;96465.91;5056675;28;20476;-78
2022/12/25 07:28:32;;;;;;;14.83;11.60;;;;;;;4.55;100.00;96476.41;5055367;28;20468;-77
2022/12/25 07:31:04;;;;;;;17.60;12.37;;;;;;;4.67;100.00;96491.66;5070391;28;20432;-77
2022/12/25 07:33:32;;;;;;;15.23;11.17;;;;;;;4.57;100.00;96465.63;5070219;28;20493;-77
2022/12/25 07:35:59;;;;;;;11.93;10.60;;;;;;;4.50;100.00;96484.28;5070313;28;20479;-77
2022/12/25 07:38:26;;;;;;;15.60;11.37;;;;;;;4.38;100.00;96469.00;5071641;28;20431;-77
2022/12/25 07:40:53;;;;;;;16.03;11.93;;;;;;;4.36;100.00;96463.28;5071827;28;20827;-77
2022/12/25 07:43:19;;;;;;;14.73;10.53;;;;;;;4.30;100.00;96455.78;5071039;28;21009;-77
2022/12/25 07:45:46;;;;;;;17.57;12.00;;;;;;;4.29;100.00;96439.31;5071626;28;20431;-76
2022/12/25 07:48:13;;;;;;;20.27;11.53;;;;;;;4.58;100.00;96477.66;5071244;28;20428;-77
2022/12/25 07:50:42;;;;;;;14.83;11.20;;;;;;;4.62;100.00;96484.66;5040601;28;20437;-76
2022/12/25 07:53:09;;;;;;;14.80;11.23;;;;;;;4.55;100.00;96462.53;5070136;28;20484;-76
2022/12/25 07:55:36;;;;;;;15.10;11.70;;;;;;;4.45;100.00;96448.50;5050704;28;20433;-76
2022/12/25 07:58:02;;;;;;;14.13;11.90;;;;;;;4.68;100.00;96474.91;5070676;28;20438;-78
2022/12/25 08:00:32;;;;;;;17.30;13.77;;;;;;;4.44;100.00;96435.72;5086751;28;20869;-78
2022/12/25 08:02:59;;;;;;;19.57;13.90;;;;;;;4.35;100.00;96434.78;5073762;28;20551;-78
2022/12/25 08:05:26;;;;;;;16.50;12.40;;;;;;;4.44;100.00;96459.25;5073480;28;20436;-76
2022/12/25 08:07:56;;;;;;;14.50;12.70;;;;;;;4.52;100.00;96474.31;5066024;28;20464;-77
2022/12/25 08:10:24;;;;;;;17.50;13.87;;;;;;;4.62;100.00;96463.72;5069707;28;20486;-75
2022/12/25 08:12:54;;;;;;;15.00;12.27;;;;;;;4.61;100.00;96454.28;5065804;28;20479;-77
2022/12/25 08:15:21;;;;;;;16.83;11.83;;;;;;;4.68;100.00;96449.50;5070180;28;21138;-77
2022/12/25 08:17:48;;;;;;;18.10;12.30;;;;;;;4.44;100.00;96399.84;5074768;28;20597;-78
2022/12/25 08:20:17;;;;;;;14.33;11.40;;;;;;;4.68;100.00;96440.84;5073232;28;21381;-76
2022/12/25 08:22:44;;;;;;;14.13;11.30;;;;;;;4.75;100.00;96426.31;5073465;28;20518;-76
2022/12/25 08:25:10;;;;;;;15.10;11.77;;;;;;;4.88;100.00;96447.63;5073588;28;20444;-76
2022/12/25 08:27:37;;;;;;;13.93;10.20;;;;;;;4.66;100.00;96414.16;5056703;28;20488;-77
2022/12/25 08:30:07;;;;;;;17.90;12.00;;;;;;;4.90;100.00;96441.00;5060657;28;20966;-76
2022/12/25 08:32:34;;;;;;;18.50;14.50;;;;;;;4.84;100.00;96425.69;5075401;28;20531;-77
2022/12/25 08:35:00;;;;;;;16.77;13.60;;;;;;;4.77;100.00;96414.78;5075208;28;20464;-76
2022/12/25 08:37:30;;;;;;;18.10;12.77;;;;;;;4.89;100.00;96413.28;5075107;28;20521;-76
2022/12/25 08:39:57;;;;;;;11.83;10.63;;;;;;;4.83;100.00;96406.56;5069300;28;20795;-75
2022/12/25 08:42:23;;;;;;;12.13;10.10;;;;;;;5.07;100.00;96453.56;5064141;28;20472;-76
2022/12/25 08:44:50;;;;;;;13.67;9.50;;;;;;;5.00;100.00;96424.38;5061696;28;20424;-78
2022/12/25 08:47:17;;;;;;;12.13;9.73;;;;;;;4.96;100.00;96421.56;5075443;28;20522;-77
2022/12/25 08:49:43;;;;;;;11.50;9.83;;;;;;;5.22;100.00;96445.50;5073416;28;20431;-75
2022/12/25 08:52:10;;;;;;;11.00;9.60;;;;;;;5.18;100.00;96433.22;5074109;28;20478;-77
2022/12/25 08:54:37;;;;;;;12.97;11.37;;;;;;;5.11;100.00;96409.25;5073361;28;20748;-76
2022/12/25 08:57:03;;;;;;;14.53;10.80;;;;;;;5.30;100.00;96457.13;5074962;28;20556;-77
2022/12/25 08:59:30;;;;;;;12.57;11.27;;;;;;;5.21;100.00;96430.81;5080003;28;20438;-77
2022/12/25 09:01:57;;;;;;;10.63;9.60;;;;;;;5.39;100.00;96438.91;5083689;28;20777;-78
2022/12/25 09:04:24;;;;;;;15.10;10.53;;;;;;;5.26;100.00;96435.19;5079101;28;20514;-78
2022/12/25 09:06:50;;;;;;;14.47;10.17;;;;;;;5.46;100.00;96455.78;5079456;28;20551;-78
2022/12/25 09:09:17;;;;;;;17.23;10.63;;;;;;;5.45;100.00;96446.38;5068801;28;20425;-76
2022/12/25 09:11:44;;;;;;;21.60;11.50;;;;;;;5.39;100.00;96431.81;5064803;28;20437;-76
2022/12/25 09:14:12;;;;;;;20.27;12.17;;;;;;;5.56;100.00;96437.25;5071721;28;20952;-76
2022/12/25 09:16:39;;;;;;;11.30;7.90;;;;;;;5.77;100.00;96471.00;5071655;28;20808;-76
2022/12/25 09:19:06;;;;;;;13.30;8.60;;;;;;;5.67;100.00;96479.03;5054826;28;20447;-76
2022/12/25 09:21:32;;;;;;;12.80;8.03;;;;;;;5.56;100.00;96449.59;5071098;28;20440;-76
2022/12/25 09:23:59;;;;;;;9.60;8.07;;;;;;;5.86;100.00;96475.25;5071216;28;20905;-76
2022/12/25 09:26:26;;;;;;;11.60;7.93;;;;;;;5.58;100.00;96435.13;5072547;28;20456;-76
2022/12/25 09:28:52;;;;;;;15.43;8.50;;;;;;;5.77;100.00;96458.66;5070959;28;20439;-75
2022/12/25 09:31:21;;;;;;;8.60;7.70;;;;;;;5.81;100.00;96485.06;5071114;28;20820;-76
2022/12/25 09:33:49;;;;;;;8.93;6.97;;;;;;;5.87;100.00;96491.75;5070931;28;21039;-76
2022/12/25 09:36:16;;;;;;;12.83;9.83;;;;;;;5.79;100.00;96460.97;5072218;28;20484;-76
2022/12/25 09:38:43;;;;;;;13.60;10.43;;;;;;;5.46;100.00;96405.97;5070858;28;20486;-76
2022/12/25 09:41:17;;;;;;;12.40;8.53;;;;;;;5.93;100.00;96488.81;5070812;28;20522;-76
2022/12/25 09:44:00;;;;;;;11.63;8.67;;;;;;;5.99;100.00;96481.59;5054336;28;20472;-76
2022/12/25 09:46:35;;;;;;;10.10;7.30;;;;;;;5.83;100.00;96456.69;5070776;28;20463;-76
2022/12/25 09:49:12;;;;;;;10.27;9.00;;;;;;;6.01;100.00;96478.66;5054489;28;20473;-77
2022/12/25 09:51:42;;;;;;;8.50;7.70;;;;;;;6.03;100.00;96466.84;5070800;28;20444;-76
2022/12/25 09:54:26;;;;;;;8.40;6.90;;;;;;;5.64;100.00;96413.00;5071951;28;20444;-76
2022/12/25 09:56:53;;;;;;;8.87;6.67;;;;;;;6.05;100.00;96475.19;5070663;28;20424;-76
2022/12/25 09:59:24;;;;;;;8.83;7.30;;;;;;;5.89;100.00;96452.91;5074814;28;20507;-76
2022/12/25 10:02:24;;;;;;;7.97;6.40;;;;;;;5.95;100.00;96456.25;5062575;28;20822;-76
2022/12/25 10:05:06;;;;;;;9.17;6.80;;;;;;;6.03;100.00;96451.09;5070488;28;20478;-77
2022/12/25 10:07:43;;;;;;;6.47;5.73;;;;;;;5.86;100.00;96409.66;5070182;28;20456;-76
2022/12/25 10:10:22;;;;;;;5.80;5.23;;;;;;;6.15;100.00;96425.13;5070400;28;20506;-76
2022/12/25 10:13:24;;;;;;;6.10;4.90;;;;;;;6.05;100.00;96414.81;5077279;28;20527;-77
2022/12/25 10:16:30;;;;;;;6.83;4.73;;;;;;;6.15;100.00;96419.09;5051524;28;20872;-76
2022/12/25 10:19:08;;;;;;;8.07;6.83;;;;;;;6.33;100.00;96441.78;5074482;28;20428;-78
2022/12/25 10:21:36;;;;;;;8.83;5.53;;;;;;;6.44;100.00;96458.91;5074986;28;20444;-78
2022/12/25 10:24:22;;;;;;;9.60;6.97;;;;;;;6.45;100.00;96444.69;5080886;28;20485;-78
2022/12/25 10:26:53;;;;;;;10.03;6.00;;;;;;;6.49;100.00;96434.34;5072439;28;21038;-78
2022/12/25 10:29:20;;;;;;;8.40;5.67;;;;;;;6.63;100.00;96429.06;5077751;28;20439;-78
2022/12/25 10:31:53;;;;;;;6.40;4.97;;;;;;;6.64;100.00;96427.97;5093326;28;20436;-78
2022/12/25 10:34:21;;;;;;;4.63;4.17;;;;;;;6.69;100.00;96438.38;5073160;28;20469;-78
2022/12/25 10:36:48;;;;;;;4.83;4.30;;;;;;;6.59;100.00;96423.63;5072548;28;20923;-76
2022/12/25 10:39:22;;;;;;;5.87;4.60;;;;;;;6.61;100.00;96423.31;5073164;28;20993;-78
2022/12/25 10:42:02;;;;;;;7.80;4.30;;;;;;;6.72;100.00;96408.88;5078292;28;20936;-78
2022/12/25 10:44:29;;;;;;;4.93;3.73;;;;;;;6.47;100.00;96360.34;5077054;28;20935;-78
2022/12/25 10:46:58;;;;;;;4.60;4.17;;;;;;;6.76;100.00;96386.19;5075626;28;20499;-77
2022/12/25 10:49:35;;;;;;;4.97;3.60;;;;;;;6.61;100.00;96381.28;5061266;28;20875;-76
2022/12/25 10:52:03;;;;;;;3.87;3.50;;;;;;;6.68;100.00;96358.03;5070558;28;20428;-78
2022/12/25 10:54:34;;;;;;;3.67;3.37;;;;;;;6.61;100.00;96331.38;5058056;28;20448;-75
2022/12/25 10:57:17;;;;;;;5.30;3.60;;;;;;;6.63;100.00;96356.28;5042535;28;20933;-77
2022/12/25 10:59:45;;;;;;;3.60;3.17;;;;;;;6.77;100.00;96371.97;5048637;28;20423;-77
2022/12/25 11:02:37;;;;;;;5.60;3.77;;;;;;;6.90;100.00;96389.53;5076168;28;20463;-77
2022/12/25 11:05:26;;;;;;;5.10;3.43;;;;;;;6.82;100.00;96408.66;5060150;28;20441;-76
2022/12/25 11:07:54;;;;;;;4.20;3.87;;;;;;;6.78;100.00;96415.56;5038386;28;20526;-77
2022/12/25 11:10:36;;;;;;;4.00;3.27;;;;;;;6.76;100.00;96423.75;5063801;28;20587;-77
2022/12/25 11:13:17;;;;;;;5.47;3.77;;;;;;;6.72;100.00;96414.91;5044750;28;21079;-77
2022/12/25 11:15:47;;;;;;;3.73;3.10;;;;;;;6.73;100.00;96416.47;5050624;28;20436;-77
2022/12/25 11:18:20;;;;;;;5.77;3.40;;;;;;;6.90;100.00;96415.81;5063700;28;20857;-77
2022/12/25 11:20:50;;;;;;;3.70;3.30;;;;;;;6.54;100.00;96365.94;5058381;28;20416;-77
2022/12/25 11:23:19;;;;;;;3.90;3.60;;;;;;;7.08;100.00;96421.97;5070062;28;20498;-78
2022/12/25 11:26:01;;;;;;;3.87;3.23;;;;;;;7.03;100.00;96416.81;5045894;28;20491;-77
2022/12/25 11:28:32;;;;;;;5.70;4.33;;;;;;;6.84;100.00;96387.31;5069340;28;20499;-75
2022/12/25 11:31:07;;;;;;;4.17;3.47;;;;;;;7.07;100.00;96409.88;5069949;28;20695;-77
2022/12/25 11:33:41;;;;;;;4.53;3.03;;;;;;;7.07;100.00;96420.38;5056686;28;20464;-77
2022/12/25 11:36:47;;;;;;;3.53;3.00;;;;;;;6.89;100.00;96395.06;5060602;28;20440;-75
2022/12/25 11:39:27;;;;;;;3.33;3.03;;;;;;;7.02;100.00;96423.91;5045427;28;20441;-77
2022/12/25 11:42:06;;;;;;;3.60;2.93;;;;;;;6.87;100.00;96387.50;5054349;28;20472;-78
2022/12/25 11:44:42;;;;;;;4.03;3.63;;;;;;;7.35;100.00;96429.69;5070671;28;20452;-76
2022/12/25 11:47:34;;;;;;;5.53;3.37;;;;;;;7.22;100.00;96408.72;5046266;28;20452;-75
2022/12/25 11:50:06;;;;;;;6.87;5.70;;;;;;;6.93;100.00;96361.84;5063645;28;20912;-76
2022/12/25 11:52:37;;;;;;;7.77;5.20;;;;;;;7.16;100.00;96379.13;5071268;28;20506;-76
2022/12/25 11:55:15;;;;;;;6.07;3.90;;;;;;;7.35;100.00;96387.59;5047208;28;20846;-76
2022/12/25 11:57:46;;;;;;;4.53;4.10;;;;;;;6.99;100.00;96345.66;5073483;28;20432;-76
2022/12/25 12:00:14;;;;;;;2.93;2.73;;;;;;;7.13;100.00;96361.34;5085350;28;20463;-77
2022/12/25 12:02:49;;;;;;;4.30;3.00;;;;;;;7.25;100.00;96376.56;5058681;28;20460;-77
2022/12/25 12:05:33;;;;;;;4.40;3.60;;;;;;;7.38;100.00;96365.16;5073515;28;20541;-77
2022/12/25 12:08:04;;;;;;;5.23;3.57;;;;;;;7.44;100.00;96361.31;5079287;28;20535;-76
2022/12/25 12:10:43;;;;;;;3.13;2.80;;;;;;;7.58;100.00;96369.84;5054558;28;20849;-76
2022/12/25 12:13:16;;;;;;;4.03;3.13;;;;;;;7.54;100.00;96357.63;5066197;28;20948;-77
2022/12/25 12:15:45;;;;;;;4.20;3.00;;;;;;;7.55;100.00;96351.28;5060523;28;20952;-78
2022/12/25 12:18:21;;;;;;;2.80;2.50;;;;;;;7.51;100.00;96331.94;5062016;28;20925;-76
2022/12/25 12:20:57;;;;;;;3.63;3.07;;;;;;;7.79;100.00;96340.34;5043642;28;20540;-76
2022/12/25 12:23:25;;;;;;;3.60;3.30;;;;;;;7.76;100.00;96317.28;5072046;28;20850;-76
2022/12/25 12:25:53;;;;;;;6.43;3.70;;;;;;;7.45;100.00;96289.19;5061555;28;20485;-77
2022/12/25 12:28:27;;;;;;;3.80;3.37;;;;;;;7.85;100.00;96320.69;5071847;28;21037;-76
2022/12/25 12:31:01;;;;;;;4.30;2.80;;;;;;;7.88;100.00;96320.88;5062604;28;20515;-77
2022/12/25 12:33:35;;;;;;;5.63;2.60;;;;;;;7.76;100.00;96299.63;5069421;28;20494;-77
2022/12/25 12:36:04;;;;;;;3.00;2.30;;;;;;;7.99;100.00;96324.72;5065016;28;20436;-76
2022/12/25 12:38:33;;;;;;;3.23;2.83;;;;;;;7.98;100.00;96281.06;5059578;28;20515;-78
2022/12/25 12:41:02;;;;;;;4.30;2.70;;;;;;;8.19;100.00;96320.72;5044067;28;20544;-77
2022/12/25 12:43:40;;;;;;;9.33;2.77;;;;;;;8.25;100.00;96319.47;5059354;28;20460;-77
2022/12/25 12:46:17;;;;;;;3.93;2.70;;;;;;;8.35;100.00;96318.41;5072479;28;20954;-76
2022/12/25 12:48:51;;;;;;;2.53;2.30;;;;;;;7.67;100.00;96238.31;5064843;28;20511;-77
2022/12/25 12:51:32;;;;;;;4.10;2.33;;;;;;;7.98;100.00;96291.59;5072033;28;20811;-77
2022/12/25 12:54:22;;;;;;;4.37;2.70;;;;;;;7.97;100.00;96299.78;5065210;28;20452;-77
2022/12/25 12:56:59;;;;;;;2.30;2.13;;;;;;;8.06;100.00;96302.44;5045076;28;20519;-77
2022/12/25 12:59:33;;;;;;;5.23;2.80;;;;;;;7.93;100.00;96280.44;5058969;28;20783;-77
2022/12/25 13:02:45;;;;;;;3.20;2.87;;;;;;;8.23;100.00;96326.91;5072869;28;20483;-76
2022/12/25 13:05:33;;;;;;;2.30;2.03;;;;;;;7.78;100.00;96234.31;5027975;28;20442;-76
2022/12/25 13:08:29;;;;;;;2.43;2.23;;;;;;;8.25;100.00;96306.28;5078044;28;20496;-77
2022/12/25 13:11:17;;;;;;;4.70;2.07;;;;;;;8.48;100.00;96329.88;5035611;28;20869;-77
2022/12/25 13:13:47;;;;;;;2.43;2.10;;;;;;;8.26;100.00;96302.56;5042091;28;21008;-77
2022/12/25 13:16:29;;;;;;;2.67;2.47;;;;;;;8.22;100.00;96320.09;5063901;28;20783;-76
2022/12/25 13:18:57;;;;;;;2.20;1.80;;;;;;;8.14;100.00;96302.41;5049469;28;20528;-77
2022/12/25 13:21:28;;;;;;;5.83;2.50;;;;;;;8.12;100.00;96290.66;5048239;28;20505;-77
2022/12/25 13:23:59;;;;;;;2.20;1.93;;;;;;;8.09;100.00;96252.56;5073563;28;20788;-77
2022/12/25 13:26:27;;;;;;;2.13;1.90;;;;;;;8.26;100.00;96299.16;5072537;28;20470;-77
2022/12/25 13:28:54;;;;;;;2.70;2.50;;;;;;;8.09;100.00;96293.91;5058976;28;20497;-77